createdAt,value
2018-12-07T00:00:24.891Z,14.16
2018-12-07T00:02:58.678Z,14.18
2018-12-07T00:05:33.229Z,14.05
2018-12-07T00:08:07.072Z,14.05
2018-12-07T00:10:40.893Z,14.02
2018-12-07T00:13:15.509Z,14.10
2018-12-07T00:15:49.325Z,14.08
2018-12-07T00:18:23.266Z,13.98
2018-12-07T00:20:57.774Z,13.94
2018-12-07T00:23:31.526Z,13.83
2018-12-07T00:26:06.065Z,13.89
2018-12-07T00:28:39.866Z,13.91
2018-12-07T00:31:13.623Z,13.85
2018-12-07T00:33:47.366Z,13.86
2018-12-07T00:36:21.226Z,13.82
2018-12-07T00:38:55.026Z,13.93
2018-12-07T00:41:28.866Z,13.74
2018-12-07T00:44:02.645Z,13.79
2018-12-07T00:46:36.439Z,13.84
2018-12-07T00:49:10.256Z,13.82
2018-12-07T00:51:44.008Z,13.69
2018-12-07T00:54:17.826Z,13.69
2018-12-07T00:56:52.318Z,13.63
2018-12-07T00:59:26.018Z,13.68
2018-12-07T01:01:59.840Z,13.73
2018-12-07T01:04:34.438Z,13.74
2018-12-07T01:07:08.987Z,13.73
2018-12-07T01:09:43.532Z,13.71
2018-12-07T01:12:17.337Z,13.63
2018-12-07T01:14:51.098Z,13.65
2018-12-07T01:17:24.973Z,13.52
2018-12-07T01:19:58.787Z,13.52
2018-12-07T01:22:32.526Z,13.53
2018-12-07T01:25:07.086Z,13.54
2018-12-07T01:27:41.197Z,13.62
2018-12-07T01:30:15.413Z,13.55
2018-12-07T01:32:49.247Z,13.50
2018-12-07T01:35:23.079Z,13.43
2018-12-07T01:37:57.670Z,13.51
2018-12-07T01:40:31.546Z,13.59
2018-12-07T01:43:06.117Z,13.52
2018-12-07T01:45:39.913Z,13.60
2018-12-07T01:48:14.029Z,13.59
2018-12-07T01:50:47.861Z,13.54
2018-12-07T01:53:21.683Z,13.45
2018-12-07T01:55:55.465Z,13.52
2018-12-07T01:58:29.290Z,13.56
2018-12-07T02:01:03.108Z,13.51
2018-12-07T02:03:38.424Z,13.54
2018-12-07T02:06:12.192Z,13.48
2018-12-07T02:08:46.113Z,13.55
2018-12-07T02:11:19.864Z,13.60
2018-12-07T02:13:53.695Z,13.61
2018-12-07T02:16:28.213Z,13.55
2018-12-07T02:19:02.785Z,13.47
2018-12-07T02:21:36.540Z,13.55
2018-12-07T02:24:11.130Z,13.61
2018-12-07T02:26:44.977Z,13.64
2018-12-07T02:29:19.558Z,13.64
2018-12-07T02:31:53.365Z,13.64
2018-12-07T02:34:27.203Z,13.66
2018-12-07T02:37:01.355Z,13.69
2018-12-07T02:39:35.237Z,13.72
2018-12-07T02:42:09.813Z,13.74
2018-12-07T02:44:43.657Z,13.79
2018-12-07T02:47:17.411Z,13.89
2018-12-07T02:49:51.229Z,13.81
2018-12-07T02:52:25.233Z,13.73
2018-12-07T02:54:59.028Z,13.79
2018-12-07T02:57:32.800Z,13.73
2018-12-07T03:00:09.175Z,13.79
2018-12-07T03:02:43.719Z,13.85
2018-12-07T03:05:17.496Z,13.86
2018-12-07T03:07:51.297Z,13.78
2018-12-07T03:10:25.529Z,13.77
2018-12-07T03:13:00.066Z,13.81
2018-12-07T03:15:33.873Z,13.82
2018-12-07T03:20:54.232Z,13.82
2018-12-07T03:23:28.003Z,13.81
2018-12-07T03:26:01.791Z,13.71
2018-12-07T03:28:36.356Z,13.75
2018-12-07T03:31:10.226Z,13.73
2018-12-07T03:33:44.120Z,13.73
2018-12-07T03:36:18.247Z,13.77
2018-12-07T03:38:52.062Z,13.75
2018-12-07T03:41:25.922Z,13.65
2018-12-07T03:43:59.726Z,13.66
2018-12-07T03:46:33.500Z,13.56
2018-12-07T03:49:07.409Z,13.53
2018-12-07T03:51:41.213Z,13.56
2018-12-07T03:54:15.017Z,13.52
2018-12-07T03:56:48.788Z,13.50
2018-12-07T03:59:23.320Z,13.50
2018-12-07T04:01:57.118Z,13.35
2018-12-07T04:04:32.021Z,13.44
2018-12-07T04:07:05.817Z,13.36
2018-12-07T04:12:21.804Z,13.47
2018-12-07T04:14:55.563Z,13.48
2018-12-07T04:17:30.116Z,13.38
2018-12-07T04:20:03.930Z,13.45
2018-12-07T04:22:37.699Z,13.37
2018-12-07T04:27:51.816Z,13.45
2018-12-07T04:30:30.043Z,13.54
2018-12-07T04:33:04.146Z,13.51
2018-12-07T04:35:37.957Z,13.45
2018-12-07T04:38:11.742Z,13.47
2018-12-07T04:40:45.588Z,13.52
2018-12-07T04:43:19.388Z,13.38
2018-12-07T04:45:53.236Z,13.35
2018-12-07T04:48:26.987Z,13.24
2018-12-07T04:51:00.795Z,13.20
2018-12-07T04:53:34.845Z,13.31
2018-12-07T04:56:09.677Z,13.30
2018-12-07T04:58:44.269Z,13.34
2018-12-07T05:01:18.089Z,13.38
2018-12-07T05:03:52.150Z,13.30
2018-12-07T05:06:25.955Z,13.22
2018-12-07T05:09:00.078Z,13.29
2018-12-07T05:11:33.878Z,13.31
2018-12-07T05:14:07.670Z,13.26
2018-12-07T05:16:41.479Z,13.24
2018-12-07T05:19:15.589Z,13.22
2018-12-07T05:21:50.601Z,13.09
2018-12-07T05:24:24.230Z,13.17
2018-12-07T05:26:58.009Z,13.17
2018-12-07T05:29:32.590Z,13.18
2018-12-07T05:32:06.434Z,13.08
2018-12-07T05:34:40.229Z,13.26
2018-12-07T05:37:14.047Z,13.21
2018-12-07T05:39:48.562Z,13.18
2018-12-07T05:42:22.444Z,13.25
2018-12-07T05:44:56.178Z,13.27
2018-12-07T05:47:30.077Z,13.26
2018-12-07T05:50:03.863Z,13.15
2018-12-07T05:52:37.658Z,13.16
2018-12-07T05:55:11.374Z,13.11
2018-12-07T05:57:45.239Z,13.18
2018-12-07T06:00:19.839Z,13.16
2018-12-07T06:02:53.700Z,13.17
2018-12-07T06:05:27.465Z,13.08
2018-12-07T06:08:02.275Z,13.08
2018-12-07T06:10:36.054Z,13.09
2018-12-07T06:13:09.869Z,13.19
2018-12-07T06:15:43.678Z,13.11
2018-12-07T06:18:17.876Z,13.16
2018-12-07T06:20:51.678Z,13.13
2018-12-07T06:23:26.315Z,13.09
2018-12-07T06:26:00.155Z,13.28
2018-12-07T06:28:34.729Z,13.17
2018-12-07T06:31:08.524Z,13.16
2018-12-07T06:33:42.466Z,13.09
2018-12-07T06:36:16.486Z,13.28
2018-12-07T06:38:50.547Z,13.27
2018-12-07T06:41:24.334Z,13.31
2018-12-07T06:43:58.881Z,13.33
2018-12-07T06:46:32.628Z,13.29
2018-12-07T06:49:16.177Z,13.23
2018-12-07T06:51:49.952Z,13.13
2018-12-07T06:54:23.700Z,13.17
2018-12-07T06:56:57.517Z,13.21
2018-12-07T06:59:32.085Z,13.13
2018-12-07T07:02:05.997Z,13.10
2018-12-07T07:04:39.849Z,13.12
2018-12-07T07:07:14.496Z,13.13
2018-12-07T07:09:49.011Z,13.28
2018-12-07T07:12:23.929Z,13.26
2018-12-07T07:14:58.494Z,13.14
2018-12-07T07:17:32.461Z,13.14
2018-12-07T07:20:07.497Z,13.14
2018-12-07T07:25:23.813Z,13.18
2018-12-07T07:27:57.605Z,13.18
2018-12-07T07:30:31.421Z,13.18
2018-12-07T07:33:05.239Z,13.15
2018-12-07T07:35:39.754Z,13.13
2018-12-07T07:38:13.585Z,13.10
2018-12-07T07:40:48.410Z,13.05
2018-12-07T07:43:22.916Z,13.13
2018-12-07T07:46:03.152Z,13.07
2018-12-07T07:48:36.923Z,13.04
2018-12-07T07:51:10.989Z,13.01
2018-12-07T07:53:45.500Z,13.07
2018-12-07T07:56:19.304Z,13.13
2018-12-07T07:58:53.126Z,13.09
2018-12-07T08:01:27.664Z,13.07
2018-12-07T08:04:02.426Z,13.12
2018-12-07T08:06:36.194Z,13.18
2018-12-07T08:09:10.926Z,13.09
2018-12-07T08:11:44.784Z,13.15
2018-12-07T08:14:18.586Z,13.28
2018-12-07T08:36:34.277Z,12.72
2018-12-07T08:47:05.527Z,13.41
2018-12-07T08:52:34.512Z,13.38
2018-12-07T08:55:08.334Z,13.39
2018-12-07T08:57:42.097Z,13.53
2018-12-07T09:00:15.884Z,13.60
2018-12-07T09:02:50.472Z,13.57
2018-12-07T09:05:24.279Z,13.52
2018-12-07T09:07:58.114Z,13.57
2018-12-07T09:10:32.681Z,13.51
2018-12-07T09:13:06.469Z,13.58
2018-12-07T09:15:41.394Z,13.62
2018-12-07T09:18:15.849Z,13.59
2018-12-07T09:20:53.922Z,13.65
2018-12-07T09:23:24.136Z,13.59
2018-12-07T09:28:41.597Z,13.49
2018-12-07T09:31:15.446Z,13.43
2018-12-07T09:33:49.222Z,13.45
2018-12-07T09:36:23.017Z,13.39
2018-12-07T09:38:56.842Z,13.46
2018-12-07T09:41:30.645Z,13.45
2018-12-07T09:44:05.235Z,13.47
2018-12-07T09:46:40.058Z,13.48
2018-12-07T09:49:14.615Z,13.40
2018-12-07T09:54:29.513Z,13.42
2018-12-07T09:57:03.253Z,13.46
2018-12-07T09:59:37.039Z,13.52
2018-12-07T10:04:52.191Z,13.44
2018-12-07T10:07:26.297Z,13.39
2018-12-07T10:10:00.826Z,13.42
2018-12-07T10:12:35.344Z,13.61
2018-12-07T10:15:10.237Z,13.58
2018-12-07T10:17:44.054Z,13.53
2018-12-07T10:20:17.866Z,13.56
2018-12-07T10:22:51.634Z,13.49
2018-12-07T10:25:25.424Z,13.55
2018-12-07T10:27:59.833Z,13.51
2018-12-07T10:30:33.581Z,13.63
2018-12-07T10:33:08.095Z,13.59
2018-12-07T10:35:41.857Z,13.48
2018-12-07T10:38:16.400Z,13.45
2018-12-07T10:40:50.177Z,13.39
2018-12-07T10:43:24.968Z,13.48
2018-12-07T10:48:38.427Z,13.56
2018-12-07T10:51:12.177Z,13.63
2018-12-07T10:56:28.214Z,13.63
2018-12-07T10:59:02.006Z,13.68
2018-12-07T11:01:54.426Z,13.63
2018-12-07T11:07:46.968Z,13.59
2018-12-07T11:10:39.316Z,13.62
2018-12-07T11:13:32.456Z,13.59
2018-12-07T11:19:27.337Z,13.50
2018-12-07T11:22:20.078Z,13.43
2018-12-07T11:25:11.654Z,13.43
2018-12-07T11:28:04.018Z,13.39
2018-12-07T11:33:50.725Z,13.80
2018-12-07T11:36:25.247Z,13.77
2018-12-07T11:41:38.669Z,13.89
2018-12-07T11:44:12.421Z,13.93
2018-12-07T11:46:46.209Z,14.01
2018-12-07T11:52:01.866Z,13.92
2018-12-07T11:54:36.384Z,13.89
2018-12-07T11:57:10.178Z,14.06
2018-12-07T11:59:44.681Z,14.02
2018-12-07T12:02:26.166Z,14.07
2018-12-07T12:04:53.074Z,14.10
2018-12-07T12:07:27.661Z,14.13
2018-12-07T12:10:01.491Z,14.11
2018-12-07T12:12:35.344Z,14.12
2018-12-07T12:17:52.256Z,14.31
2018-12-07T12:20:26.045Z,14.39
2018-12-07T12:25:39.706Z,14.51
2018-12-07T12:28:13.441Z,14.34
2018-12-07T12:30:47.482Z,14.25
2018-12-07T12:36:00.787Z,14.31
2018-12-07T12:38:34.582Z,14.30
2018-12-07T12:41:08.412Z,14.30
2018-12-07T12:46:24.455Z,14.40
2018-12-07T12:48:58.237Z,14.42
2018-12-07T12:51:31.983Z,14.47
2018-12-07T12:54:05.791Z,14.50
2018-12-07T12:56:39.643Z,14.54
2018-12-07T12:59:14.956Z,14.56
2018-12-07T13:01:48.794Z,14.50
2018-12-07T13:04:22.625Z,14.59
2018-12-07T13:06:56.788Z,14.69
2018-12-07T13:09:30.625Z,14.59
2018-12-07T13:12:05.140Z,14.55
2018-12-07T13:14:38.859Z,14.58
2018-12-07T13:17:12.922Z,14.59
2018-12-07T13:19:46.733Z,14.55
2018-12-07T13:22:20.965Z,14.54
2018-12-07T13:24:54.730Z,14.56
2018-12-07T13:27:28.517Z,14.55
2018-12-07T13:30:03.018Z,14.64
2018-12-07T13:32:38.301Z,14.60
2018-12-07T13:35:12.125Z,14.38
2018-12-07T13:37:45.954Z,14.25
2018-12-07T13:40:19.804Z,14.36
2018-12-07T13:42:53.628Z,14.39
2018-12-07T13:45:28.226Z,14.36
2018-12-07T13:48:03.092Z,14.34
2018-12-07T13:50:43.891Z,14.32
2018-12-07T13:53:17.755Z,14.23
2018-12-07T13:55:52.248Z,14.32
2018-12-07T13:58:26.419Z,14.40
2018-12-07T14:01:00.212Z,14.42
2018-12-07T14:03:34.083Z,14.38
2018-12-07T14:06:08.108Z,14.29
2018-12-07T14:08:41.952Z,14.35
2018-12-07T14:11:15.647Z,14.33
2018-12-07T14:13:50.439Z,14.29
2018-12-07T14:16:24.273Z,14.32
2018-12-07T14:18:57.987Z,14.23
2018-12-07T14:21:31.934Z,14.36
2018-12-07T14:24:06.909Z,14.24
2018-12-07T14:26:40.559Z,14.25
2018-12-07T14:29:15.133Z,14.30
2018-12-07T14:34:31.106Z,14.07
2018-12-07T14:39:47.873Z,13.72
2018-12-07T14:42:23.941Z,13.46
2018-12-07T14:47:39.745Z,13.32
2018-12-07T14:50:13.707Z,13.13
2018-12-07T14:52:47.350Z,13.14
2018-12-07T14:58:02.607Z,13.16
2018-12-07T15:00:36.375Z,13.11
2018-12-07T15:03:10.085Z,13.24
2018-12-07T15:05:43.956Z,13.30
2018-12-07T15:08:18.605Z,13.30
2018-12-07T15:16:12.077Z,13.76
2018-12-07T15:18:45.907Z,13.76
2018-12-07T15:21:19.581Z,13.86
2018-12-07T15:26:39.551Z,13.83
2018-12-07T15:29:13.345Z,13.67
2018-12-07T15:31:47.179Z,13.56
2018-12-07T15:37:04.124Z,13.22
2018-12-07T15:39:38.695Z,13.00
2018-12-07T15:42:12.875Z,12.85
2018-12-07T15:50:09.673Z,12.76
2018-12-07T15:52:43.644Z,12.70
2018-12-07T15:55:17.227Z,12.70
2018-12-07T15:57:51.008Z,12.47
2018-12-07T16:03:08.445Z,12.35
2018-12-07T16:05:42.478Z,12.30
2018-12-07T16:08:16.103Z,12.28
2018-12-07T16:10:50.132Z,12.37
2018-12-07T16:13:24.292Z,12.12
2018-12-07T16:15:58.908Z,11.96
2018-12-07T16:18:32.733Z,12.12
2018-12-07T16:21:06.510Z,12.15
2018-12-07T16:23:40.421Z,12.07
2018-12-07T16:26:14.209Z,12.07
2018-12-07T16:28:47.908Z,11.96
2018-12-07T16:34:01.826Z,12.13
2018-12-07T16:36:35.725Z,11.99
2018-12-07T16:39:10.374Z,12.08
2018-12-07T16:41:44.063Z,12.06
2018-12-07T16:46:57.403Z,12.01
2018-12-07T16:49:31.027Z,11.89
2018-12-07T16:52:05.197Z,12.00
2018-12-07T16:57:19.286Z,12.02
2018-12-07T16:59:53.090Z,11.91
2018-12-07T17:02:27.559Z,11.96
2018-12-07T17:05:02.477Z,12.06
2018-12-07T17:07:36.484Z,12.12
2018-12-07T17:10:10.737Z,12.34
2018-12-07T17:12:45.257Z,12.26
2018-12-07T17:15:18.892Z,12.17
2018-12-07T17:17:52.736Z,12.32
2018-12-07T17:20:26.715Z,12.40
2018-12-07T17:23:01.244Z,12.34
2018-12-07T17:25:35.060Z,12.22
2018-12-07T17:28:09.039Z,12.30
2018-12-07T17:36:05.811Z,12.09
2018-12-07T17:38:39.684Z,12.12
2018-12-07T17:41:13.523Z,12.08
2018-12-07T17:43:47.231Z,12.00
2018-12-07T17:46:21.109Z,11.98
2018-12-07T17:48:55.239Z,11.89
2018-12-07T17:54:10.489Z,11.89
2018-12-07T17:56:44.470Z,12.00
2018-12-07T17:59:18.853Z,12.13
2018-12-07T18:01:52.523Z,12.14
2018-12-07T18:04:26.337Z,12.02
2018-12-07T18:07:01.201Z,11.97
2018-12-07T18:09:34.906Z,11.92
2018-12-07T18:12:08.938Z,11.90
2018-12-07T18:14:42.822Z,11.94
2018-12-07T18:17:16.774Z,11.91
2018-12-07T18:19:50.552Z,11.77
2018-12-07T18:25:06.935Z,11.60
2018-12-07T18:33:10.739Z,11.86
2018-12-07T18:35:44.651Z,11.77
2018-12-07T18:38:18.242Z,11.83
2018-12-07T18:40:52.847Z,11.92
2018-12-07T18:43:26.740Z,11.82
2018-12-07T18:46:00.723Z,11.84
2018-12-07T18:48:35.543Z,11.76
2018-12-07T18:51:09.146Z,11.76
2018-12-07T18:53:43.002Z,11.68
2018-12-07T18:56:16.966Z,11.60
2018-12-07T18:58:50.842Z,11.55
2018-12-07T19:01:24.628Z,11.46
2018-12-07T19:03:58.671Z,11.46
2018-12-07T19:06:33.096Z,11.44
2018-12-07T19:09:11.048Z,11.33
2018-12-07T19:11:44.882Z,11.29
2018-12-07T19:16:58.227Z,11.16
2018-12-07T19:19:31.790Z,11.07
2018-12-07T19:22:05.847Z,10.99
2018-12-07T19:24:39.598Z,10.96
2018-12-07T19:29:53.263Z,10.80
2018-12-07T19:32:28.711Z,10.73
2018-12-07T19:37:44.086Z,10.44
2018-12-07T19:40:17.864Z,10.36
2018-12-07T19:42:51.634Z,10.30
2018-12-07T19:45:25.799Z,10.25
2018-12-07T19:47:59.721Z,10.21
2018-12-07T19:50:33.543Z,10.21
2018-12-07T19:53:08.474Z,10.22
2018-12-07T19:55:42.243Z,10.23
2018-12-07T19:58:15.917Z,10.26
2018-12-07T20:03:31.406Z,10.33
2018-12-07T20:06:06.923Z,10.37
2018-12-07T20:08:40.433Z,10.38
2018-12-07T20:11:14.993Z,10.24
2018-12-07T20:13:48.825Z,10.31
2018-12-07T20:16:22.725Z,10.35
2018-12-07T20:18:56.821Z,10.34
2018-12-07T20:21:30.656Z,10.34
2018-12-07T20:24:05.706Z,10.40
2018-12-07T20:26:40.335Z,10.34
2018-12-07T20:31:55.501Z,10.38
2018-12-07T20:34:29.228Z,10.39
2018-12-07T20:37:03.071Z,10.35
2018-12-07T20:39:36.869Z,10.36
2018-12-07T20:42:10.720Z,10.36
2018-12-07T20:44:44.512Z,10.40
2018-12-07T20:47:24.540Z,10.44
2018-12-07T20:49:52.309Z,10.39
2018-12-07T20:52:26.001Z,10.49
2018-12-07T20:55:00.058Z,10.49
2018-12-07T20:57:33.753Z,10.43
2018-12-07T21:00:09.959Z,10.50
2018-12-07T21:02:43.970Z,10.57
2018-12-07T21:09:34.153Z,10.27
2018-12-07T21:13:36.471Z,10.07
2018-12-07T21:19:22.076Z,9.54
2018-12-07T21:21:55.714Z,9.63
2018-12-07T21:24:38.220Z,9.49
2018-12-07T21:27:12.235Z,9.24
2018-12-07T21:32:55.517Z,9.30
2018-12-07T21:35:29.332Z,9.32
2018-12-07T21:38:04.039Z,9.32
2018-12-07T21:40:37.656Z,9.32
2018-12-07T21:43:12.456Z,9.32
2018-12-07T21:45:45.954Z,9.33
2018-12-07T21:48:30.427Z,9.30
2018-12-07T21:54:32.596Z,9.21
2018-12-07T21:57:06.209Z,9.31
2018-12-07T21:59:41.034Z,9.40
2018-12-07T22:04:55.264Z,9.45
2018-12-07T22:07:30.360Z,9.52
2018-12-07T22:10:04.803Z,9.52
2018-12-07T22:12:39.599Z,9.50
2018-12-07T22:15:13.549Z,9.62
2018-12-07T22:20:27.198Z,9.63
2018-12-07T22:23:01.158Z,9.64
2018-12-07T22:25:34.776Z,9.58
2018-12-07T22:28:09.600Z,9.46
2018-12-07T22:30:43.559Z,9.49
2018-12-07T22:33:17.247Z,9.47
2018-12-07T22:35:50.992Z,9.39
2018-12-07T22:38:24.869Z,9.34
2018-12-07T22:40:58.661Z,9.20
2018-12-07T22:43:32.847Z,9.18
2018-12-07T22:46:06.571Z,9.14
2018-12-07T22:48:40.507Z,9.16
2018-12-07T22:51:14.849Z,9.17
2018-12-07T22:53:49.681Z,8.95
2018-12-07T22:56:24.362Z,8.80
2018-12-07T22:58:59.043Z,8.82
2018-12-07T23:01:32.841Z,8.76
2018-12-07T23:04:06.614Z,8.75
2018-12-07T23:06:40.447Z,8.84
2018-12-07T23:09:15.033Z,9.07
2018-12-07T23:11:48.870Z,9.06
2018-12-07T23:14:22.650Z,9.12
2018-12-07T23:16:56.455Z,9.34
2018-12-07T23:19:30.246Z,9.35
2018-12-07T23:22:04.037Z,9.37
2018-12-07T23:24:38.117Z,9.48
2018-12-07T23:27:12.605Z,9.43
2018-12-07T23:29:47.210Z,9.27
2018-12-07T23:32:21.298Z,9.21
2018-12-07T23:34:55.089Z,9.22
2018-12-07T23:37:30.058Z,9.20
2018-12-07T23:40:03.901Z,9.19
2018-12-07T23:42:37.760Z,9.22
2018-12-07T23:45:11.529Z,9.26
2018-12-07T23:47:45.312Z,9.26
2018-12-07T23:50:19.104Z,9.31
2018-12-07T23:52:52.884Z,9.28
2018-12-07T23:55:26.901Z,9.18
2018-12-07T23:58:01.405Z,9.15
